sensor_id;sensor_type;location;lat;lon;timestamp;P1;durP1;ratioP1;P2;durP2;ratioP2
83694;SDS011;73676;43.582;22.268;2023-12-28T00:00:24;118.80;;;64.72;;
83694;SDS011;73676;43.582;22.268;2023-12-28T00:02:49;100.65;;;52.63;;
83694;SDS011;73676;43.582;22.268;2023-12-28T00:05:15;84.55;;;44.17;;
83694;SDS011;73676;43.582;22.268;2023-12-28T00:07:40;86.45;;;48.83;;
83694;SDS011;73676;43.582;22.268;2023-12-28T00:10:05;85.53;;;49.45;;
83694;SDS011;73676;43.582;22.268;2023-12-28T00:12:31;117.65;;;70.82;;
83694;SDS011;73676;43.582;22.268;2023-12-28T00:14:57;52.42;;;29.92;;
83694;SDS011;73676;43.582;22.268;2023-12-28T00:17:22;86.88;;;46.65;;
83694;SDS011;73676;43.582;22.268;2023-12-28T00:19:47;80.75;;;43.53;;
83694;SDS011;73676;43.582;22.268;2023-12-28T00:22:13;87.20;;;52.38;;
83694;SDS011;73676;43.582;22.268;2023-12-28T00:24:38;78.47;;;45.17;;
83694;SDS011;73676;43.582;22.268;2023-12-28T00:27:03;137.88;;;75.78;;
83694;SDS011;73676;43.582;22.268;2023-12-28T00:29:29;104.15;;;66.75;;
83694;SDS011;73676;43.582;22.268;2023-12-28T00:31:54;99.00;;;58.67;;
83694;SDS011;73676;43.582;22.268;2023-12-28T00:34:19;77.82;;;45.03;;
83694;SDS011;73676;43.582;22.268;2023-12-28T00:36:45;97.80;;;57.00;;
83694;SDS011;73676;43.582;22.268;2023-12-28T00:39:10;87.05;;;51.90;;
83694;SDS011;73676;43.582;22.268;2023-12-28T00:41:36;94.90;;;54.92;;
83694;SDS011;73676;43.582;22.268;2023-12-28T00:44:01;98.82;;;60.78;;
83694;SDS011;73676;43.582;22.268;2023-12-28T00:46:27;92.82;;;45.53;;
83694;SDS011;73676;43.582;22.268;2023-12-28T00:48:52;71.47;;;42.17;;
83694;SDS011;73676;43.582;22.268;2023-12-28T00:51:18;65.63;;;41.47;;
83694;SDS011;73676;43.582;22.268;2023-12-28T00:53:43;137.13;;;65.55;;
83694;SDS011;73676;43.582;22.268;2023-12-28T00:56:09;90.78;;;53.15;;
83694;SDS011;73676;43.582;22.268;2023-12-28T00:58:34;87.15;;;52.13;;
83694;SDS011;73676;43.582;22.268;2023-12-28T01:01:00;96.82;;;52.70;;
83694;SDS011;73676;43.582;22.268;2023-12-28T01:03:25;116.28;;;58.30;;
83694;SDS011;73676;43.582;22.268;2023-12-28T01:05:50;123.03;;;63.67;;
83694;SDS011;73676;43.582;22.268;2023-12-28T01:08:17;110.35;;;59.95;;
83694;SDS011;73676;43.582;22.268;2023-12-28T01:10:43;109.38;;;59.28;;
83694;SDS011;73676;43.582;22.268;2023-12-28T01:13:08;101.95;;;56.58;;
83694;SDS011;73676;43.582;22.268;2023-12-28T01:15:33;98.55;;;54.00;;
83694;SDS011;73676;43.582;22.268;2023-12-28T01:17:59;80.65;;;45.42;;
83694;SDS011;73676;43.582;22.268;2023-12-28T01:20:24;67.63;;;42.45;;
83694;SDS011;73676;43.582;22.268;2023-12-28T01:22:49;69.45;;;41.90;;
83694;SDS011;73676;43.582;22.268;2023-12-28T01:25:16;74.03;;;42.88;;
83694;SDS011;73676;43.582;22.268;2023-12-28T01:27:41;63.53;;;37.72;;
83694;SDS011;73676;43.582;22.268;2023-12-28T01:30:07;65.25;;;37.00;;
83694;SDS011;73676;43.582;22.268;2023-12-28T01:32:32;55.15;;;33.65;;
83694;SDS011;73676;43.582;22.268;2023-12-28T01:34:59;64.22;;;39.25;;
83694;SDS011;73676;43.582;22.268;2023-12-28T01:37:24;62.45;;;36.60;;
83694;SDS011;73676;43.582;22.268;2023-12-28T01:39:55;68.43;;;39.53;;
83694;SDS011;73676;43.582;22.268;2023-12-28T01:42:21;54.72;;;32.25;;
83694;SDS011;73676;43.582;22.268;2023-12-28T01:44:46;55.08;;;32.60;;
83694;SDS011;73676;43.582;22.268;2023-12-28T01:47:11;63.17;;;35.65;;
83694;SDS011;73676;43.582;22.268;2023-12-28T01:49:37;62.97;;;37.70;;
83694;SDS011;73676;43.582;22.268;2023-12-28T01:52:02;54.85;;;33.83;;
83694;SDS011;73676;43.582;22.268;2023-12-28T01:54:28;60.75;;;37.92;;
83694;SDS011;73676;43.582;22.268;2023-12-28T01:56:57;59.40;;;37.80;;
83694;SDS011;73676;43.582;22.268;2023-12-28T01:59:22;74.25;;;42.08;;
83694;SDS011;73676;43.582;22.268;2023-12-28T02:01:48;66.80;;;42.22;;
83694;SDS011;73676;43.582;22.268;2023-12-28T02:04:13;62.83;;;38.70;;
83694;SDS011;73676;43.582;22.268;2023-12-28T02:06:39;70.25;;;41.05;;
83694;SDS011;73676;43.582;22.268;2023-12-28T02:09:04;62.72;;;37.60;;
83694;SDS011;73676;43.582;22.268;2023-12-28T02:11:30;54.70;;;34.03;;
83694;SDS011;73676;43.582;22.268;2023-12-28T02:13:56;130.60;;;51.88;;
83694;SDS011;73676;43.582;22.268;2023-12-28T02:16:36;72.32;;;38.20;;
83694;SDS011;73676;43.582;22.268;2023-12-28T02:19:05;66.97;;;37.42;;
83694;SDS011;73676;43.582;22.268;2023-12-28T02:21:36;57.85;;;33.08;;
83694;SDS011;73676;43.582;22.268;2023-12-28T02:24:01;57.22;;;33.17;;
83694;SDS011;73676;43.582;22.268;2023-12-28T02:26:26;55.33;;;33.70;;
83694;SDS011;73676;43.582;22.268;2023-12-28T02:28:52;63.08;;;35.78;;
83694;SDS011;73676;43.582;22.268;2023-12-28T02:31:28;59.53;;;36.15;;
83694;SDS011;73676;43.582;22.268;2023-12-28T02:33:59;60.60;;;37.58;;
83694;SDS011;73676;43.582;22.268;2023-12-28T02:36:25;66.63;;;38.80;;
83694;SDS011;73676;43.582;22.268;2023-12-28T02:38:52;69.38;;;40.13;;
83694;SDS011;73676;43.582;22.268;2023-12-28T02:41:18;173.43;;;69.25;;
83694;SDS011;73676;43.582;22.268;2023-12-28T02:43:43;68.18;;;38.55;;
83694;SDS011;73676;43.582;22.268;2023-12-28T02:46:09;43.03;;;25.15;;
83694;SDS011;73676;43.582;22.268;2023-12-28T02:48:34;32.95;;;19.40;;
83694;SDS011;73676;43.582;22.268;2023-12-28T02:50:59;49.25;;;26.83;;
83694;SDS011;73676;43.582;22.268;2023-12-28T02:53:25;33.58;;;19.25;;
83694;SDS011;73676;43.582;22.268;2023-12-28T02:55:50;53.60;;;31.65;;
83694;SDS011;73676;43.582;22.268;2023-12-28T02:58:15;62.13;;;35.13;;
83694;SDS011;73676;43.582;22.268;2023-12-28T03:00:40;128.32;;;55.75;;
83694;SDS011;73676;43.582;22.268;2023-12-28T03:03:06;90.10;;;47.67;;
83694;SDS011;73676;43.582;22.268;2023-12-28T03:05:31;65.28;;;35.17;;
83694;SDS011;73676;43.582;22.268;2023-12-28T03:07:56;51.75;;;29.77;;
83694;SDS011;73676;43.582;22.268;2023-12-28T03:10:23;38.70;;;23.05;;
83694;SDS011;73676;43.582;22.268;2023-12-28T03:12:48;36.10;;;21.27;;
83694;SDS011;73676;43.582;22.268;2023-12-28T03:15:13;32.83;;;20.88;;
83694;SDS011;73676;43.582;22.268;2023-12-28T03:17:39;213.52;;;94.80;;
83694;SDS011;73676;43.582;22.268;2023-12-28T03:20:04;46.22;;;25.48;;
83694;SDS011;73676;43.582;22.268;2023-12-28T03:22:30;364.55;;;156.55;;
83694;SDS011;73676;43.582;22.268;2023-12-28T03:24:55;44.90;;;23.63;;
83694;SDS011;73676;43.582;22.268;2023-12-28T03:27:20;136.80;;;46.03;;
83694;SDS011;73676;43.582;22.268;2023-12-28T03:29:46;71.88;;;32.20;;
83694;SDS011;73676;43.582;22.268;2023-12-28T03:32:11;31.83;;;19.30;;
83694;SDS011;73676;43.582;22.268;2023-12-28T03:34:37;148.77;;;50.25;;
83694;SDS011;73676;43.582;22.268;2023-12-28T03:37:02;352.38;;;112.45;;
83694;SDS011;73676;43.582;22.268;2023-12-28T03:39:27;177.68;;;59.72;;
83694;SDS011;73676;43.582;22.268;2023-12-28T03:41:53;443.10;;;168.02;;
83694;SDS011;73676;43.582;22.268;2023-12-28T03:44:19;37.28;;;23.10;;
83694;SDS011;73676;43.582;22.268;2023-12-28T03:46:45;43.42;;;24.70;;
83694;SDS011;73676;43.582;22.268;2023-12-28T03:49:10;89.28;;;39.28;;
83694;SDS011;73676;43.582;22.268;2023-12-28T03:51:35;284.80;;;97.60;;
83694;SDS011;73676;43.582;22.268;2023-12-28T03:54:01;885.22;;;332.23;;
83694;SDS011;73676;43.582;22.268;2023-12-28T03:56:27;266.63;;;95.68;;
83694;SDS011;73676;43.582;22.268;2023-12-28T03:58:53;313.60;;;100.38;;
83694;SDS011;73676;43.582;22.268;2023-12-28T04:01:18;315.30;;;100.63;;
83694;SDS011;73676;43.582;22.268;2023-12-28T04:03:44;140.50;;;47.78;;
83694;SDS011;73676;43.582;22.268;2023-12-28T04:06:11;268.05;;;94.70;;
83694;SDS011;73676;43.582;22.268;2023-12-28T04:08:38;379.00;;;131.70;;
83694;SDS011;73676;43.582;22.268;2023-12-28T04:11:03;354.38;;;116.00;;
83694;SDS011;73676;43.582;22.268;2023-12-28T04:13:29;29.17;;;16.42;;
83694;SDS011;73676;43.582;22.268;2023-12-28T04:15:54;28.77;;;16.67;;
83694;SDS011;73676;43.582;22.268;2023-12-28T04:18:19;42.00;;;21.13;;
83694;SDS011;73676;43.582;22.268;2023-12-28T04:20:44;70.00;;;29.73;;
83694;SDS011;73676;43.582;22.268;2023-12-28T04:23:10;68.38;;;26.63;;
83694;SDS011;73676;43.582;22.268;2023-12-28T04:25:35;24.23;;;15.73;;
83694;SDS011;73676;43.582;22.268;2023-12-28T04:28:00;29.60;;;17.08;;
83694;SDS011;73676;43.582;22.268;2023-12-28T04:30:26;26.95;;;15.27;;
83694;SDS011;73676;43.582;22.268;2023-12-28T04:32:52;62.35;;;26.60;;
83694;SDS011;73676;43.582;22.268;2023-12-28T04:35:17;61.03;;;31.30;;
83694;SDS011;73676;43.582;22.268;2023-12-28T04:37:43;41.25;;;23.77;;
83694;SDS011;73676;43.582;22.268;2023-12-28T04:40:08;45.88;;;24.38;;
83694;SDS011;73676;43.582;22.268;2023-12-28T04:42:34;55.50;;;31.38;;
83694;SDS011;73676;43.582;22.268;2023-12-28T04:44:59;68.03;;;38.72;;
83694;SDS011;73676;43.582;22.268;2023-12-28T04:47:24;83.55;;;42.72;;
83694;SDS011;73676;43.582;22.268;2023-12-28T04:49:49;166.85;;;67.95;;
83694;SDS011;73676;43.582;22.268;2023-12-28T04:52:15;40.15;;;21.60;;
83694;SDS011;73676;43.582;22.268;2023-12-28T04:54:40;36.50;;;22.33;;
83694;SDS011;73676;43.582;22.268;2023-12-28T04:57:06;31.02;;;18.27;;
83694;SDS011;73676;43.582;22.268;2023-12-28T04:59:37;44.63;;;26.90;;
83694;SDS011;73676;43.582;22.268;2023-12-28T05:02:02;51.33;;;31.67;;
83694;SDS011;73676;43.582;22.268;2023-12-28T05:04:28;50.08;;;31.95;;
83694;SDS011;73676;43.582;22.268;2023-12-28T05:06:53;66.13;;;37.85;;
83694;SDS011;73676;43.582;22.268;2023-12-28T05:09:19;58.88;;;35.08;;
83694;SDS011;73676;43.582;22.268;2023-12-28T05:11:44;76.60;;;47.50;;
83694;SDS011;73676;43.582;22.268;2023-12-28T05:14:09;93.85;;;60.00;;
83694;SDS011;73676;43.582;22.268;2023-12-28T05:16:35;47.97;;;34.38;;
83694;SDS011;73676;43.582;22.268;2023-12-28T05:19:00;55.03;;;35.10;;
83694;SDS011;73676;43.582;22.268;2023-12-28T05:21:26;45.47;;;28.67;;
83694;SDS011;73676;43.582;22.268;2023-12-28T05:23:51;37.88;;;24.20;;
83694;SDS011;73676;43.582;22.268;2023-12-28T05:26:17;38.35;;;25.13;;
83694;SDS011;73676;43.582;22.268;2023-12-28T05:28:42;43.92;;;26.55;;
83694;SDS011;73676;43.582;22.268;2023-12-28T05:31:07;51.45;;;30.42;;
83694;SDS011;73676;43.582;22.268;2023-12-28T05:33:33;54.15;;;30.50;;
83694;SDS011;73676;43.582;22.268;2023-12-28T05:35:58;54.30;;;32.53;;
83694;SDS011;73676;43.582;22.268;2023-12-28T05:38:23;39.58;;;25.80;;
83694;SDS011;73676;43.582;22.268;2023-12-28T05:40:49;41.50;;;27.02;;
83694;SDS011;73676;43.582;22.268;2023-12-28T05:43:14;53.97;;;29.98;;
83694;SDS011;73676;43.582;22.268;2023-12-28T05:45:40;46.30;;;29.88;;
83694;SDS011;73676;43.582;22.268;2023-12-28T05:48:05;48.75;;;30.75;;
83694;SDS011;73676;43.582;22.268;2023-12-28T05:50:31;54.45;;;32.13;;
83694;SDS011;73676;43.582;22.268;2023-12-28T05:52:56;64.03;;;38.97;;
83694;SDS011;73676;43.582;22.268;2023-12-28T05:55:22;80.38;;;49.05;;
83694;SDS011;73676;43.582;22.268;2023-12-28T05:57:47;80.72;;;49.20;;
83694;SDS011;73676;43.582;22.268;2023-12-28T06:00:13;90.63;;;49.83;;
83694;SDS011;73676;43.582;22.268;2023-12-28T06:02:39;87.72;;;48.75;;
83694;SDS011;73676;43.582;22.268;2023-12-28T06:05:05;73.43;;;41.38;;
83694;SDS011;73676;43.582;22.268;2023-12-28T06:07:31;119.20;;;59.63;;
83694;SDS011;73676;43.582;22.268;2023-12-28T06:09:56;92.68;;;52.40;;
83694;SDS011;73676;43.582;22.268;2023-12-28T06:12:21;112.25;;;55.45;;
83694;SDS011;73676;43.582;22.268;2023-12-28T06:14:47;121.20;;;65.45;;
83694;SDS011;73676;43.582;22.268;2023-12-28T06:17:12;377.83;;;194.57;;
83694;SDS011;73676;43.582;22.268;2023-12-28T06:19:40;220.88;;;142.15;;
83694;SDS011;73676;43.582;22.268;2023-12-28T06:22:05;151.45;;;97.55;;
83694;SDS011;73676;43.582;22.268;2023-12-28T06:24:30;118.45;;;75.95;;
83694;SDS011;73676;43.582;22.268;2023-12-28T06:26:55;93.15;;;58.33;;
83694;SDS011;73676;43.582;22.268;2023-12-28T06:29:21;101.57;;;63.38;;
83694;SDS011;73676;43.582;22.268;2023-12-28T06:31:46;112.85;;;75.70;;
83694;SDS011;73676;43.582;22.268;2023-12-28T06:34:16;114.63;;;77.80;;
83694;SDS011;73676;43.582;22.268;2023-12-28T06:39:08;86.72;;;53.03;;
83694;SDS011;73676;43.582;22.268;2023-12-28T06:41:33;70.22;;;41.80;;
83694;SDS011;73676;43.582;22.268;2023-12-28T06:43:58;102.35;;;58.78;;
83694;SDS011;73676;43.582;22.268;2023-12-28T06:46:24;173.95;;;100.32;;
83694;SDS011;73676;43.582;22.268;2023-12-28T06:48:49;112.65;;;73.72;;
83694;SDS011;73676;43.582;22.268;2023-12-28T06:51:18;103.57;;;59.25;;
83694;SDS011;73676;43.582;22.268;2023-12-28T06:53:44;125.15;;;68.10;;
83694;SDS011;73676;43.582;22.268;2023-12-28T06:56:09;119.38;;;68.60;;
83694;SDS011;73676;43.582;22.268;2023-12-28T06:58:34;99.97;;;55.90;;
83694;SDS011;73676;43.582;22.268;2023-12-28T07:01:02;87.60;;;51.03;;
83694;SDS011;73676;43.582;22.268;2023-12-28T07:03:27;89.45;;;52.17;;
83694;SDS011;73676;43.582;22.268;2023-12-28T07:05:55;81.30;;;48.22;;
83694;SDS011;73676;43.582;22.268;2023-12-28T07:08:20;91.03;;;58.08;;
83694;SDS011;73676;43.582;22.268;2023-12-28T07:10:46;118.80;;;79.55;;
83694;SDS011;73676;43.582;22.268;2023-12-28T07:13:11;102.68;;;69.25;;
83694;SDS011;73676;43.582;22.268;2023-12-28T07:15:36;112.40;;;65.53;;
83694;SDS011;73676;43.582;22.268;2023-12-28T07:18:02;145.45;;;80.50;;
83694;SDS011;73676;43.582;22.268;2023-12-28T07:20:27;100.88;;;60.90;;
83694;SDS011;73676;43.582;22.268;2023-12-28T07:22:52;92.03;;;54.67;;
83694;SDS011;73676;43.582;22.268;2023-12-28T07:25:17;83.35;;;49.42;;
83694;SDS011;73676;43.582;22.268;2023-12-28T07:27:43;75.07;;;47.45;;
83694;SDS011;73676;43.582;22.268;2023-12-28T07:30:08;65.95;;;42.75;;
83694;SDS011;73676;43.582;22.268;2023-12-28T07:32:34;76.80;;;44.80;;
83694;SDS011;73676;43.582;22.268;2023-12-28T07:34:59;64.28;;;39.13;;
83694;SDS011;73676;43.582;22.268;2023-12-28T07:37:25;61.53;;;40.08;;
83694;SDS011;73676;43.582;22.268;2023-12-28T07:39:50;61.17;;;42.00;;
83694;SDS011;73676;43.582;22.268;2023-12-28T07:42:16;72.63;;;45.30;;
83694;SDS011;73676;43.582;22.268;2023-12-28T07:44:41;148.10;;;86.53;;
83694;SDS011;73676;43.582;22.268;2023-12-28T07:47:08;67.82;;;44.03;;
83694;SDS011;73676;43.582;22.268;2023-12-28T07:49:33;71.03;;;44.03;;
83694;SDS011;73676;43.582;22.268;2023-12-28T07:51:58;60.13;;;37.35;;
83694;SDS011;73676;43.582;22.268;2023-12-28T07:54:24;77.35;;;45.53;;
83694;SDS011;73676;43.582;22.268;2023-12-28T07:56:49;93.22;;;51.85;;
83694;SDS011;73676;43.582;22.268;2023-12-28T07:59:14;82.20;;;51.72;;
83694;SDS011;73676;43.582;22.268;2023-12-28T08:01:40;65.50;;;39.25;;
83694;SDS011;73676;43.582;22.268;2023-12-28T08:04:05;229.05;;;92.75;;
83694;SDS011;73676;43.582;22.268;2023-12-28T08:06:30;86.97;;;46.28;;
83694;SDS011;73676;43.582;22.268;2023-12-28T08:08:57;81.95;;;48.92;;
83694;SDS011;73676;43.582;22.268;2023-12-28T08:11:24;229.18;;;87.70;;
83694;SDS011;73676;43.582;22.268;2023-12-28T08:13:49;538.55;;;212.75;;
83694;SDS011;73676;43.582;22.268;2023-12-28T08:16:15;463.00;;;181.60;;
83694;SDS011;73676;43.582;22.268;2023-12-28T08:18:40;120.20;;;62.97;;
83694;SDS011;73676;43.582;22.268;2023-12-28T08:21:06;92.25;;;56.72;;
83694;SDS011;73676;43.582;22.268;2023-12-28T08:23:31;82.40;;;52.75;;
83694;SDS011;73676;43.582;22.268;2023-12-28T08:25:56;48.03;;;31.02;;
83694;SDS011;73676;43.582;22.268;2023-12-28T08:28:22;42.28;;;29.52;;
83694;SDS011;73676;43.582;22.268;2023-12-28T08:30:48;35.90;;;25.10;;
83694;SDS011;73676;43.582;22.268;2023-12-28T08:33:13;36.80;;;24.83;;
83694;SDS011;73676;43.582;22.268;2023-12-28T08:35:39;32.28;;;23.02;;
83694;SDS011;73676;43.582;22.268;2023-12-28T08:38:04;33.95;;;24.40;;
83694;SDS011;73676;43.582;22.268;2023-12-28T08:40:31;35.70;;;26.25;;
83694;SDS011;73676;43.582;22.268;2023-12-28T08:42:56;39.47;;;30.80;;
83694;SDS011;73676;43.582;22.268;2023-12-28T08:45:21;33.90;;;27.30;;
83694;SDS011;73676;43.582;22.268;2023-12-28T08:47:47;34.50;;;24.80;;
83694;SDS011;73676;43.582;22.268;2023-12-28T08:50:12;29.83;;;23.77;;
83694;SDS011;73676;43.582;22.268;2023-12-28T08:52:37;27.65;;;20.95;;
83694;SDS011;73676;43.582;22.268;2023-12-28T08:55:03;31.35;;;24.55;;
83694;SDS011;73676;43.582;22.268;2023-12-28T08:57:28;29.40;;;22.50;;
83694;SDS011;73676;43.582;22.268;2023-12-28T08:59:53;30.80;;;23.73;;
83694;SDS011;73676;43.582;22.268;2023-12-28T09:02:19;23.05;;;19.42;;
83694;SDS011;73676;43.582;22.268;2023-12-28T09:04:44;26.92;;;21.38;;
83694;SDS011;73676;43.582;22.268;2023-12-28T09:07:09;27.95;;;22.05;;
83694;SDS011;73676;43.582;22.268;2023-12-28T09:09:34;21.70;;;18.13;;
83694;SDS011;73676;43.582;22.268;2023-12-28T09:12:01;18.60;;;14.82;;
83694;SDS011;73676;43.582;22.268;2023-12-28T09:14:27;18.83;;;14.88;;
83694;SDS011;73676;43.582;22.268;2023-12-28T09:16:52;16.45;;;12.77;;
83694;SDS011;73676;43.582;22.268;2023-12-28T09:19:17;13.27;;;11.43;;
83694;SDS011;73676;43.582;22.268;2023-12-28T09:21:42;13.48;;;12.07;;
83694;SDS011;73676;43.582;22.268;2023-12-28T09:24:08;15.60;;;12.70;;
83694;SDS011;73676;43.582;22.268;2023-12-28T09:26:33;20.83;;;14.05;;
83694;SDS011;73676;43.582;22.268;2023-12-28T09:28:58;17.13;;;13.63;;
83694;SDS011;73676;43.582;22.268;2023-12-28T09:31:24;14.63;;;12.10;;
83694;SDS011;73676;43.582;22.268;2023-12-28T09:33:49;16.40;;;12.82;;
83694;SDS011;73676;43.582;22.268;2023-12-28T09:36:15;17.02;;;14.32;;
83694;SDS011;73676;43.582;22.268;2023-12-28T09:38:41;14.88;;;12.63;;
83694;SDS011;73676;43.582;22.268;2023-12-28T09:41:13;18.92;;;13.52;;
83694;SDS011;73676;43.582;22.268;2023-12-28T09:43:58;18.40;;;13.32;;
83694;SDS011;73676;43.582;22.268;2023-12-28T09:46:25;19.02;;;13.98;;
83694;SDS011;73676;43.582;22.268;2023-12-28T09:48:54;12.93;;;9.75;;
83694;SDS011;73676;43.582;22.268;2023-12-28T09:51:21;15.60;;;11.40;;
83694;SDS011;73676;43.582;22.268;2023-12-28T09:53:46;17.33;;;13.30;;
83694;SDS011;73676;43.582;22.268;2023-12-28T09:56:12;12.45;;;10.32;;
83694;SDS011;73676;43.582;22.268;2023-12-28T09:58:38;15.65;;;12.02;;
83694;SDS011;73676;43.582;22.268;2023-12-28T10:01:04;10.40;;;9.27;;
83694;SDS011;73676;43.582;22.268;2023-12-28T10:03:30;11.65;;;8.90;;
83694;SDS011;73676;43.582;22.268;2023-12-28T10:05:55;11.32;;;9.10;;
83694;SDS011;73676;43.582;22.268;2023-12-28T10:08:20;13.30;;;11.20;;
83694;SDS011;73676;43.582;22.268;2023-12-28T10:10:46;9.10;;;8.20;;
83694;SDS011;73676;43.582;22.268;2023-12-28T10:13:16;10.30;;;8.07;;
83694;SDS011;73676;43.582;22.268;2023-12-28T10:15:42;11.98;;;8.05;;
83694;SDS011;73676;43.582;22.268;2023-12-28T10:18:08;10.68;;;8.50;;
83694;SDS011;73676;43.582;22.268;2023-12-28T10:20:33;14.70;;;9.13;;
83694;SDS011;73676;43.582;22.268;2023-12-28T10:22:59;11.60;;;9.27;;
83694;SDS011;73676;43.582;22.268;2023-12-28T10:25:24;8.13;;;6.88;;
83694;SDS011;73676;43.582;22.268;2023-12-28T10:27:50;9.43;;;6.38;;
83694;SDS011;73676;43.582;22.268;2023-12-28T10:30:19;11.80;;;8.50;;
83694;SDS011;73676;43.582;22.268;2023-12-28T10:32:45;8.23;;;7.15;;
83694;SDS011;73676;43.582;22.268;2023-12-28T10:35:10;8.40;;;6.85;;
83694;SDS011;73676;43.582;22.268;2023-12-28T10:37:36;10.60;;;6.80;;
83694;SDS011;73676;43.582;22.268;2023-12-28T10:40:06;9.57;;;6.83;;
83694;SDS011;73676;43.582;22.268;2023-12-28T10:42:32;9.90;;;7.70;;
83694;SDS011;73676;43.582;22.268;2023-12-28T10:45:04;8.07;;;6.75;;
83694;SDS011;73676;43.582;22.268;2023-12-28T10:47:33;9.23;;;7.75;;
83694;SDS011;73676;43.582;22.268;2023-12-28T10:50:05;9.77;;;7.47;;
83694;SDS011;73676;43.582;22.268;2023-12-28T10:57:32;8.90;;;6.88;;
83694;SDS011;73676;43.582;22.268;2023-12-28T11:00:02;10.40;;;7.65;;
83694;SDS011;73676;43.582;22.268;2023-12-28T11:02:34;10.07;;;7.20;;
83694;SDS011;73676;43.582;22.268;2023-12-28T11:05:01;9.38;;;7.20;;
83694;SDS011;73676;43.582;22.268;2023-12-28T11:07:27;12.13;;;8.05;;
83694;SDS011;73676;43.582;22.268;2023-12-28T11:09:57;8.85;;;7.07;;
83694;SDS011;73676;43.582;22.268;2023-12-28T11:12:24;8.80;;;7.20;;
83694;SDS011;73676;43.582;22.268;2023-12-28T11:14:50;8.18;;;6.38;;
83694;SDS011;73676;43.582;22.268;2023-12-28T11:17:17;7.00;;;6.30;;
83694;SDS011;73676;43.582;22.268;2023-12-28T11:19:44;8.32;;;6.72;;
83694;SDS011;73676;43.582;22.268;2023-12-28T11:22:09;7.35;;;6.00;;
83694;SDS011;73676;43.582;22.268;2023-12-28T11:24:35;14.85;;;7.13;;
83694;SDS011;73676;43.582;22.268;2023-12-28T11:27:01;8.35;;;6.32;;
83694;SDS011;73676;43.582;22.268;2023-12-28T11:29:28;7.30;;;5.72;;
83694;SDS011;73676;43.582;22.268;2023-12-28T11:31:58;13.38;;;9.30;;
83694;SDS011;73676;43.582;22.268;2023-12-28T11:34:30;7.65;;;6.50;;
83694;SDS011;73676;43.582;22.268;2023-12-28T11:36:56;11.57;;;9.82;;
83694;SDS011;73676;43.582;22.268;2023-12-28T11:39:28;13.18;;;11.77;;
83694;SDS011;73676;43.582;22.268;2023-12-28T11:41:59;13.70;;;11.73;;
83694;SDS011;73676;43.582;22.268;2023-12-28T11:44:26;37.05;;;29.77;;
83694;SDS011;73676;43.582;22.268;2023-12-28T11:46:51;16.80;;;14.13;;
83694;SDS011;73676;43.582;22.268;2023-12-28T11:49:16;21.15;;;17.50;;
83694;SDS011;73676;43.582;22.268;2023-12-28T11:51:53;13.30;;;10.85;;
83694;SDS011;73676;43.582;22.268;2023-12-28T11:54:19;11.60;;;8.60;;
83694;SDS011;73676;43.582;22.268;2023-12-28T11:56:45;9.20;;;7.25;;
83694;SDS011;73676;43.582;22.268;2023-12-28T11:59:10;8.27;;;6.50;;
83694;SDS011;73676;43.582;22.268;2023-12-28T12:01:35;7.63;;;6.20;;
83694;SDS011;73676;43.582;22.268;2023-12-28T12:04:01;6.90;;;5.88;;
83694;SDS011;73676;43.582;22.268;2023-12-28T12:06:26;9.18;;;6.60;;
83694;SDS011;73676;43.582;22.268;2023-12-28T12:08:51;8.95;;;8.05;;
83694;SDS011;73676;43.582;22.268;2023-12-28T12:11:17;15.90;;;14.30;;
83694;SDS011;73676;43.582;22.268;2023-12-28T12:13:43;8.55;;;7.50;;
83694;SDS011;73676;43.582;22.268;2023-12-28T12:16:08;7.93;;;6.45;;
83694;SDS011;73676;43.582;22.268;2023-12-28T12:18:34;7.97;;;7.18;;
83694;SDS011;73676;43.582;22.268;2023-12-28T12:21:01;10.57;;;6.88;;
83694;SDS011;73676;43.582;22.268;2023-12-28T12:23:26;12.48;;;9.15;;
83694;SDS011;73676;43.582;22.268;2023-12-28T12:25:53;15.13;;;11.90;;
83694;SDS011;73676;43.582;22.268;2023-12-28T12:28:18;12.88;;;11.43;;
83694;SDS011;73676;43.582;22.268;2023-12-28T12:30:53;16.35;;;13.10;;
83694;SDS011;73676;43.582;22.268;2023-12-28T12:33:19;10.77;;;6.45;;
83694;SDS011;73676;43.582;22.268;2023-12-28T12:35:45;9.02;;;7.63;;
83694;SDS011;73676;43.582;22.268;2023-12-28T12:38:10;10.18;;;7.82;;
83694;SDS011;73676;43.582;22.268;2023-12-28T12:40:36;13.98;;;9.95;;
83694;SDS011;73676;43.582;22.268;2023-12-28T12:43:01;15.93;;;13.35;;
83694;SDS011;73676;43.582;22.268;2023-12-28T12:45:27;19.75;;;14.95;;
83694;SDS011;73676;43.582;22.268;2023-12-28T12:47:52;15.43;;;13.77;;
83694;SDS011;73676;43.582;22.268;2023-12-28T12:50:17;24.20;;;19.58;;
83694;SDS011;73676;43.582;22.268;2023-12-28T12:52:43;23.60;;;19.52;;
83694;SDS011;73676;43.582;22.268;2023-12-28T12:55:10;28.13;;;20.98;;
83694;SDS011;73676;43.582;22.268;2023-12-28T12:57:36;29.02;;;22.10;;
83694;SDS011;73676;43.582;22.268;2023-12-28T13:00:02;25.83;;;19.45;;
83694;SDS011;73676;43.582;22.268;2023-12-28T13:02:31;18.83;;;12.90;;
83694;SDS011;73676;43.582;22.268;2023-12-28T13:04:58;19.20;;;16.03;;
83694;SDS011;73676;43.582;22.268;2023-12-28T13:07:23;18.42;;;16.42;;
83694;SDS011;73676;43.582;22.268;2023-12-28T13:09:49;15.18;;;12.70;;
83694;SDS011;73676;43.582;22.268;2023-12-28T13:12:14;19.13;;;11.27;;
83694;SDS011;73676;43.582;22.268;2023-12-28T13:14:39;20.08;;;12.00;;
83694;SDS011;73676;43.582;22.268;2023-12-28T13:17:05;26.90;;;15.98;;
83694;SDS011;73676;43.582;22.268;2023-12-28T13:19:30;20.95;;;11.77;;
83694;SDS011;73676;43.582;22.268;2023-12-28T13:21:56;13.30;;;9.95;;
83694;SDS011;73676;43.582;22.268;2023-12-28T13:24:21;13.15;;;11.60;;
83694;SDS011;73676;43.582;22.268;2023-12-28T13:26:46;17.58;;;13.40;;
83694;SDS011;73676;43.582;22.268;2023-12-28T13:29:12;20.13;;;13.13;;
83694;SDS011;73676;43.582;22.268;2023-12-28T13:31:38;14.90;;;11.80;;
83694;SDS011;73676;43.582;22.268;2023-12-28T13:34:04;20.65;;;16.45;;
83694;SDS011;73676;43.582;22.268;2023-12-28T13:36:29;21.13;;;14.40;;
83694;SDS011;73676;43.582;22.268;2023-12-28T13:38:55;17.92;;;12.85;;
83694;SDS011;73676;43.582;22.268;2023-12-28T13:41:20;18.33;;;12.55;;
83694;SDS011;73676;43.582;22.268;2023-12-28T13:43:45;23.05;;;17.75;;
83694;SDS011;73676;43.582;22.268;2023-12-28T13:46:11;23.73;;;16.42;;
83694;SDS011;73676;43.582;22.268;2023-12-28T13:48:36;27.88;;;21.05;;
83694;SDS011;73676;43.582;22.268;2023-12-28T13:51:04;18.88;;;15.05;;
83694;SDS011;73676;43.582;22.268;2023-12-28T13:53:29;22.42;;;14.82;;
83694;SDS011;73676;43.582;22.268;2023-12-28T13:55:56;21.42;;;15.68;;
83694;SDS011;73676;43.582;22.268;2023-12-28T13:58:21;35.10;;;21.38;;
83694;SDS011;73676;43.582;22.268;2023-12-28T14:00:47;38.40;;;27.77;;
83694;SDS011;73676;43.582;22.268;2023-12-28T14:03:12;48.83;;;32.55;;
83694;SDS011;73676;43.582;22.268;2023-12-28T14:05:37;47.03;;;28.73;;
83694;SDS011;73676;43.582;22.268;2023-12-28T14:08:03;59.13;;;36.42;;